Time;durP1;ratioP1;P1;durP2;ratioP2;P2;SDS_P1;SDS_P2;PMS_P1;PMS_P2;Temp;Humidity;BMP_temperature;BMP_pressure;BME280_temperature;BME280_humidity;BME280_pressure;Samples;Min_cycle;Max_cycle;Signal;HPM_P1;HPM_P2
2020/12/21 00:00:29;;;;;;;66.45;61.05;;;;;;;12.75;41.90;101377.31;4483219;31;34175;-89
2020/12/21 00:03:09;;;;;;;66.45;61.10;;;;;;;12.26;42.97;101378.78;4473107;31;33910;-88
2020/12/21 00:05:36;;;;;;;67.03;61.50;;;;;;;12.34;42.79;101384.81;4469885;31;32663;-89
2020/12/21 00:08:04;;;;;;;66.62;61.25;;;;;;;11.76;43.87;101384.50;4470738;31;32813;-89
2020/12/21 00:10:32;;;;;;;65.90;60.50;;;;;;;12.05;43.61;101380.78;4456940;31;34186;-88
2020/12/21 00:12:59;;;;;;;66.90;61.50;;;;;;;12.07;43.58;101386.81;4483219;31;34284;-89
2020/12/21 00:15:27;;;;;;;62.85;57.75;;;;;;;12.27;42.89;101376.19;4470329;31;34072;-88
2020/12/21 00:17:55;;;;;;;66.55;61.33;;;;;;;12.24;42.92;101372.72;4457737;31;32063;-88
2020/12/21 00:20:22;;;;;;;62.53;57.65;;;;;;;12.07;43.27;101368.53;4457454;31;33196;-88
2020/12/21 00:22:50;;;;;;;62.38;57.35;;;;;;;12.34;42.77;101376.97;4470544;31;33210;-89
2020/12/21 00:25:17;;;;;;;64.85;59.67;;;;;;;12.81;41.57;101377.22;4483506;31;33657;-88
2020/12/21 00:27:45;;;;;;;65.80;60.60;;;;;;;12.79;41.65;101376.37;4471210;31;32614;-88
2020/12/21 00:30:13;;;;;;;66.15;60.95;;;;;;;12.39;42.33;101375.16;4458249;31;33743;-88
2020/12/21 00:32:42;;;;;;;66.20;60.88;;;;;;;11.94;43.38;101370.41;4459218;31;33051;-89
2020/12/21 00:35:09;;;;;;;66.55;60.85;;;;;;;11.78;43.87;101379.25;4470953;31;33934;-89
2020/12/21 00:37:37;;;;;;;66.25;60.97;;;;;;;12.17;43.13;101383.25;4458087;31;32663;-88
2020/12/21 00:40:04;;;;;;;65.40;59.58;;;;;;;11.97;43.53;101380.00;4470558;31;33081;-89
2020/12/21 00:42:32;;;;;;;63.33;57.88;;;;;;;11.78;43.85;101379.25;4469609;31;32818;-88
2020/12/21 00:44:59;;;;;;;64.40;59.33;;;;;;;12.30;42.90;101378.75;4457931;31;32459;-89
2020/12/21 00:47:27;;;;;;;63.70;58.55;;;;;;;12.11;43.01;101387.66;4483178;31;33585;-88
2020/12/21 00:49:54;;;;;;;66.28;60.75;;;;;;;12.48;42.46;101393.31;4470038;31;33328;-89
2020/12/21 00:52:22;;;;;;;62.53;57.05;;;;;;;12.70;41.82;101391.31;4470034;31;33137;-89
2020/12/21 00:54:50;;;;;;;66.90;61.58;;;;;;;12.12;43.28;101392.87;4469422;31;33936;-89
2020/12/21 00:57:17;;;;;;;65.00;59.83;;;;;;;12.11;43.22;101393.78;4456396;31;32590;-88
2020/12/21 00:59:53;;;;;;;62.95;57.75;;;;;;;12.42;42.57;101395.16;4484153;31;34660;-88
2020/12/21 01:02:21;;;;;;;66.50;60.97;;;;;;;12.51;42.28;101401.16;4470549;31;33631;-89
2020/12/21 01:04:48;;;;;;;64.70;59.50;;;;;;;12.19;43.02;101388.44;4472093;31;34192;-88
2020/12/21 01:07:16;;;;;;;64.22;58.95;;;;;;;11.92;43.83;101393.06;4472049;31;32663;-88
2020/12/21 01:09:46;;;;;;;63.20;58.05;;;;;;;12.09;43.66;101392.91;4472552;31;34689;-89
2020/12/21 01:12:14;;;;;;;63.92;58.55;;;;;;;11.83;43.98;101396.66;4472015;31;34524;-89
2020/12/21 01:14:42;;;;;;;63.15;57.85;;;;;;;12.54;42.72;101392.41;4472387;31;34593;-90
2020/12/21 01:17:11;;;;;;;66.47;60.83;;;;;;;12.42;43.08;101395.16;4472241;31;33284;-89
2020/12/21 01:19:38;;;;;;;66.65;60.75;;;;;;;11.27;45.48;101396.22;4471197;31;33679;-89
2020/12/21 01:22:06;;;;;;;68.93;63.28;;;;;;;12.35;43.30;101394.34;4484822;31;35001;-88
2020/12/21 01:24:34;;;;;;;66.85;61.30;;;;;;;11.81;44.39;101394.94;4472147;31;33597;-89
2020/12/21 01:27:02;;;;;;;67.43;61.72;;;;;;;12.67;42.45;101391.34;4471330;31;33417;-89
2020/12/21 01:29:29;;;;;;;67.65;61.90;;;;;;;11.68;44.79;101395.03;4458181;31;32994;-89
2020/12/21 01:31:56;;;;;;;68.78;62.80;;;;;;;11.98;44.14;101392.19;4471309;31;33126;-88
2020/12/21 01:34:24;;;;;;;68.90;63.33;;;;;;;12.38;43.43;101396.97;4484426;31;33976;-88
2020/12/21 01:36:52;;;;;;;66.30;60.78;;;;;;;12.22;43.82;101398.00;4470590;31;32500;-89
2020/12/21 01:39:20;;;;;;;67.05;61.28;;;;;;;12.01;44.37;101397.38;4458350;31;34180;-88
2020/12/21 01:41:47;;;;;;;66.97;61.45;;;;;;;12.02;44.15;101392.13;4471526;31;34024;-88
2020/12/21 01:44:15;;;;;;;68.65;62.88;;;;;;;11.46;45.65;101388.25;4458286;31;33226;-89
2020/12/21 01:46:43;;;;;;;65.70;60.30;;;;;;;12.17;43.86;101393.69;4471877;31;33656;-88
2020/12/21 01:49:11;;;;;;;65.60;59.88;;;;;;;12.24;43.86;101399.72;4472167;31;33857;-88
2020/12/21 01:51:38;;;;;;;63.72;58.40;;;;;;;12.33;43.45;101391.78;4485006;31;34071;-89
2020/12/21 01:54:07;;;;;;;65.50;59.85;;;;;;;12.59;42.98;101394.94;4458372;31;33898;-89
2020/12/21 01:56:35;;;;;;;69.03;62.95;;;;;;;12.74;42.53;101383.41;4484146;31;33498;-88
2020/12/21 01:59:04;;;;;;;67.00;61.37;;;;;;;12.60;42.67;101381.84;4484423;31;34169;-89
2020/12/21 02:01:32;;;;;;;67.90;62.08;;;;;;;12.58;42.79;101380.13;4460214;31;34317;-88
2020/12/21 02:04:00;;;;;;;69.62;63.42;;;;;;;12.13;43.92;101375.47;4461409;31;34074;-89
2020/12/21 02:06:29;;;;;;;66.10;60.53;;;;;;;12.49;43.34;101378.53;4461137;31;32703;-89
2020/12/21 02:08:56;;;;;;;67.72;61.88;;;;;;;12.21;44.38;101378.00;4473165;31;33529;-89
2020/12/21 02:11:25;;;;;;;65.40;59.80;;;;;;;12.02;44.87;101376.44;4460148;31;33462;-88
2020/12/21 02:13:53;;;;;;;64.62;59.22;;;;;;;11.77;45.91;101373.19;4472622;31;33226;-88
2020/12/21 02:16:20;;;;;;;66.10;60.60;;;;;;;12.06;45.37;101379.00;4459191;31;32428;-88
2020/12/21 02:18:48;;;;;;;64.05;58.55;;;;;;;12.56;44.04;101369.69;4472080;31;33223;-89
2020/12/21 02:21:15;;;;;;;66.15;60.65;;;;;;;12.00;45.54;101380.81;4471314;31;33173;-88
2020/12/21 02:23:43;;;;;;;63.40;57.95;;;;;;;12.36;44.77;101377.81;4458713;31;33206;-89
2020/12/21 02:26:11;;;;;;;67.97;62.20;;;;;;;12.37;44.90;101375.16;4471335;31;33289;-88
2020/12/21 02:28:38;;;;;;;67.20;61.37;;;;;;;12.70;43.79;101370.38;4458019;31;33969;-88
2020/12/21 02:31:06;;;;;;;67.00;61.37;;;;;;;12.49;44.24;101375.91;4471081;31;34951;-88
2020/12/21 02:33:33;;;;;;;67.25;61.70;;;;;;;12.47;44.08;101375.03;4484038;31;34109;-89
2020/12/21 02:36:01;;;;;;;66.03;60.45;;;;;;;12.53;44.26;101381.06;4458118;31;32475;-89
2020/12/21 02:38:29;;;;;;;69.03;63.50;;;;;;;11.94;45.67;101380.84;4484097;31;33578;-89
2020/12/21 02:40:56;;;;;;;67.53;61.67;;;;;;;12.49;44.49;101371.53;4470721;31;32604;-89
2020/12/21 02:43:23;;;;;;;67.15;61.70;;;;;;;11.98;45.51;101373.91;4483849;31;34572;-89
2020/12/21 02:45:51;;;;;;;69.05;63.33;;;;;;;11.85;46.02;101379.19;4470747;31;32947;-88
2020/12/21 02:48:19;;;;;;;67.40;61.70;;;;;;;12.28;44.83;101375.28;4458062;31;33010;-88
2020/12/21 02:50:46;;;;;;;68.10;62.05;;;;;;;11.80;45.86;101380.97;4483604;31;33878;-89
2020/12/21 02:53:15;;;;;;;69.30;63.45;;;;;;;11.90;45.81;101376.56;4470668;31;32942;-89
2020/12/21 02:55:47;;;;;;;63.97;58.75;;;;;;;11.91;45.66;101374.78;4470485;31;32818;-89
2020/12/21 02:58:14;;;;;;;67.37;61.37;;;;;;;11.91;45.84;101375.66;4471412;31;33519;-88
2020/12/21 03:00:42;;;;;;;64.25;58.95;;;;;;;11.80;46.15;101367.94;4458654;31;33325;-88
2020/12/21 03:03:12;;;;;;;64.78;59.35;;;;;;;12.13;45.41;101371.09;4471969;31;33897;-88
2020/12/21 03:05:41;;;;;;;66.43;60.58;;;;;;;12.62;44.07;101366.16;4471808;31;33605;-89
2020/12/21 03:08:09;;;;;;;65.20;59.63;;;;;;;12.63;44.30;101363.53;4471513;31;33611;-88
2020/12/21 03:10:38;;;;;;;65.57;59.65;;;;;;;12.55;44.58;101361.88;4458605;31;33774;-88
2020/12/21 03:13:06;;;;;;;65.53;59.83;;;;;;;12.07;45.59;101360.72;4484295;31;34355;-89
2020/12/21 03:15:33;;;;;;;63.97;58.55;;;;;;;12.80;43.80;101365.03;4484540;31;33283;-88
2020/12/21 03:18:01;;;;;;;67.90;62.25;;;;;;;12.97;43.46;101363.03;4471047;31;32903;-88
2020/12/21 03:20:29;;;;;;;65.62;59.97;;;;;;;12.52;44.39;101365.41;4483979;31;34037;-89
2020/12/21 03:22:57;;;;;;;64.32;58.63;;;;;;;12.40;44.76;101366.41;4471455;31;33702;-88
2020/12/21 03:25:24;;;;;;;68.97;62.95;;;;;;;12.10;45.57;101370.25;4470392;31;32470;-89
2020/12/21 03:27:51;;;;;;;67.72;62.25;;;;;;;12.65;44.27;101372.19;4457430;31;32832;-88
2020/12/21 03:30:18;;;;;;;67.07;61.50;;;;;;;12.72;44.08;101365.13;4457981;31;33442;-89
2020/12/21 03:32:46;;;;;;;66.30;60.50;;;;;;;12.25;45.31;101359.63;4471139;31;32926;-88
2020/12/21 03:35:26;;;;;;;68.87;62.70;;;;;;;12.07;45.76;101355.47;4460960;31;32034;-89
2020/12/21 03:37:54;;;;;;;67.47;60.85;;;;;;;12.03;45.66;101357.28;4471595;31;33916;-88
2020/12/21 03:40:21;;;;;;;67.03;60.95;;;;;;;12.66;44.33;101349.53;4471308;31;34121;-88
2020/12/21 03:42:49;;;;;;;65.72;60.03;;;;;;;13.02;43.29;101357.75;4471011;31;34092;-88
2020/12/21 03:45:17;;;;;;;66.93;60.90;;;;;;;12.81;43.80;101353.69;4447346;31;34038;-88
2020/12/21 03:47:46;;;;;;;71.40;65.45;;;;;;;12.57;44.66;101360.13;4460327;31;33284;-88
2020/12/21 03:50:14;;;;;;;70.95;64.75;;;;;;;13.32;42.55;101356.38;4472631;31;32873;-89
2020/12/21 03:52:43;;;;;;;68.47;62.58;;;;;;;12.74;43.84;101362.47;4470949;31;34218;-88
2020/12/21 03:55:10;;;;;;;72.20;65.80;;;;;;;13.06;43.14;101355.94;4470082;31;32185;-88
2020/12/21 03:57:38;;;;;;;65.28;59.47;;;;;;;12.70;44.13;101352.06;4470838;31;33847;-87
2020/12/21 04:00:07;;;;;;;68.37;62.35;;;;;;;13.24;42.82;101355.63;4470827;31;33108;-87
2020/12/21 04:02:39;;;;;;;65.68;59.63;;;;;;;12.85;43.64;101350.12;4483660;31;33157;-87
2020/12/21 04:05:08;;;;;;;71.57;65.57;;;;;;;13.10;43.01;101342.78;4470413;31;33327;-88
2020/12/21 04:07:36;;;;;;;70.20;64.05;;;;;;;13.33;42.45;101339.75;4470562;31;33716;-87
2020/12/21 04:10:06;;;;;;;70.82;64.25;;;;;;;12.72;43.95;101341.59;4470656;31;34358;-88
2020/12/21 04:12:34;;;;;;;68.62;62.88;;;;;;;12.30;45.01;101347.38;4483017;31;32928;-88
2020/12/21 04:15:03;;;;;;;72.30;66.12;;;;;;;11.67;46.58;101350.66;4457403;31;31920;-88
2020/12/21 04:17:31;;;;;;;67.28;61.35;;;;;;;12.26;45.02;101350.03;4470478;31;33829;-88
2020/12/21 04:19:58;;;;;;;67.20;61.15;;;;;;;12.68;43.89;101351.25;4470542;31;34207;-88
2020/12/21 04:22:26;;;;;;;68.55;61.97;;;;;;;12.85;43.68;101344.91;4470681;31;34628;-87
2020/12/21 04:24:54;;;;;;;66.72;60.53;;;;;;;13.09;42.98;101348.87;4470964;31;34310;-90
2020/12/21 04:27:22;;;;;;;68.05;61.92;;;;;;;13.02;42.90;101348.13;4471110;31;34181;-88
2020/12/21 04:29:50;;;;;;;70.47;64.22;;;;;;;12.24;44.80;101354.44;4470566;31;34844;-88
2020/12/21 04:32:17;;;;;;;70.28;64.22;;;;;;;12.79;43.67;101344.97;4483000;31;35051;-87
2020/12/21 04:34:46;;;;;;;67.32;61.37;;;;;;;13.33;42.46;101350.25;4470251;31;34438;-89
2020/12/21 04:37:13;;;;;;;67.32;60.95;;;;;;;12.73;43.94;101351.16;4470896;31;33798;-88
2020/12/21 04:39:42;;;;;;;64.60;59.00;;;;;;;12.67;43.93;101354.75;4473169;31;34815;-88
2020/12/21 04:42:10;;;;;;;67.43;61.55;;;;;;;12.58;44.12;101359.22;4459729;31;32814;-88
2020/12/21 04:44:37;;;;;;;69.22;63.20;;;;;;;12.60;44.34;101350.47;4459442;31;33401;-88
2020/12/21 04:47:05;;;;;;;69.60;63.10;;;;;;;13.42;42.28;101348.41;4472067;31;34607;-88
2020/12/21 04:49:33;;;;;;;68.57;62.38;;;;;;;12.95;43.15;101351.72;4472921;31;33840;-88
2020/12/21 04:52:05;;;;;;;66.57;60.65;;;;;;;12.50;44.39;101348.87;4472583;31;32748;-88
2020/12/21 04:54:33;;;;;;;66.82;61.03;;;;;;;12.69;44.03;101345.13;4472556;31;32538;-88
2020/12/21 04:57:01;;;;;;;66.78;60.90;;;;;;;12.99;43.21;101347.28;4459046;31;33729;-88
2020/12/21 04:59:29;;;;;;;70.15;63.83;;;;;;;12.80;43.44;101346.72;4472739;31;33893;-88
2020/12/21 05:01:57;;;;;;;66.35;60.38;;;;;;;13.56;41.95;101354.28;4472447;31;33510;-88
2020/12/21 05:04:24;;;;;;;65.15;59.17;;;;;;;13.75;41.39;101351.31;4472931;31;32583;-88
2020/12/21 05:06:53;;;;;;;67.05;60.97;;;;;;;14.08;40.65;101360.28;4459817;31;32714;-88
2020/12/21 05:09:22;;;;;;;69.87;63.95;;;;;;;13.39;42.29;101361.53;4472567;31;33837;-88
2020/12/21 05:11:57;;;;;;;70.87;64.45;;;;;;;13.66;41.83;101360.22;4471681;31;33547;-88
2020/12/21 05:14:36;;;;;;;67.62;61.72;;;;;;;13.44;42.31;101362.31;4459174;31;33421;-88
2020/12/21 05:17:13;;;;;;;67.75;61.47;;;;;;;13.71;41.73;101353.13;4459741;31;33933;-88
2020/12/21 05:19:43;;;;;;;73.40;66.47;;;;;;;13.34;42.55;101356.34;4473269;31;33598;-88
2020/12/21 05:22:15;;;;;;;70.22;64.22;;;;;;;13.62;42.18;101362.00;4472506;31;32340;-88
2020/12/21 05:24:44;;;;;;;66.37;60.40;;;;;;;13.59;42.10;101361.19;4489230;31;32961;-88
2020/12/21 05:27:18;;;;;;;67.95;61.67;;;;;;;12.55;44.65;101367.12;4476365;31;32417;-88
2020/12/21 05:29:53;;;;;;;66.72;60.67;;;;;;;12.66;44.44;101368.69;4463790;31;35144;-88
2020/12/21 05:32:21;;;;;;;68.05;61.37;;;;;;;13.29;43.17;101366.03;4458992;31;32713;-88
2020/12/21 05:34:49;;;;;;;68.22;61.65;;;;;;;12.88;43.84;101368.38;4459457;31;33387;-87
2020/12/21 05:37:21;;;;;;;68.72;62.38;;;;;;;12.69;44.15;101370.41;4459181;31;33447;-88
2020/12/21 05:39:55;;;;;;;68.78;62.40;;;;;;;12.45;44.81;101369.00;4472620;31;34954;-88
2020/12/21 05:42:23;;;;;;;68.70;62.05;;;;;;;12.50;44.98;101375.87;4472205;31;33659;-88
2020/12/21 05:44:59;;;;;;;68.32;61.50;;;;;;;13.05;43.36;101369.91;4459224;31;32204;-87
2020/12/21 05:47:27;;;;;;;70.43;63.55;;;;;;;12.78;44.09;101370.28;4472091;31;32569;-88
2020/12/21 05:49:57;;;;;;;70.25;63.67;;;;;;;12.58;44.53;101373.19;4483596;31;34039;-88
2020/12/21 05:52:29;;;;;;;76.95;69.85;;;;;;;13.44;42.45;101370.19;4484467;31;34312;-88
2020/12/21 05:55:03;;;;;;;77.03;69.55;;;;;;;13.03;43.22;101365.56;4471199;31;33555;-88
2020/12/21 05:57:31;;;;;;;69.87;63.38;;;;;;;12.94;43.74;101368.31;4452542;31;33291;-88
2020/12/21 06:00:00;;;;;;;69.90;63.10;;;;;;;13.38;42.89;101372.91;4458572;31;34128;-88
2020/12/21 06:02:30;;;;;;;66.05;60.05;;;;;;;12.94;43.64;101368.31;4484832;31;32820;-88
2020/12/21 06:05:05;;;;;;;69.18;62.65;;;;;;;12.72;44.36;101372.97;4458920;31;32309;-88
2020/12/21 06:07:33;;;;;;;67.22;61.15;;;;;;;12.62;44.66;101369.63;4471875;31;34375;-88
2020/12/21 06:10:04;;;;;;;68.47;62.45;;;;;;;12.80;44.10;101368.53;4459163;31;33064;-88
2020/12/21 06:12:43;;;;;;;72.55;66.12;;;;;;;13.01;43.43;101377.78;4458287;31;32949;-88
2020/12/21 06:15:14;;;;;;;69.37;63.03;;;;;;;13.48;42.38;101374.47;4458583;31;32636;-88
2020/12/21 06:17:42;;;;;;;67.45;61.53;;;;;;;12.90;43.33;101377.09;4459036;31;34037;-88
2020/12/21 06:20:20;;;;;;;68.85;62.55;;;;;;;12.81;43.59;101377.22;4472923;31;32980;-88
2020/12/21 06:22:47;;;;;;;67.53;61.55;;;;;;;13.20;42.84;101383.63;4471864;31;32781;-88
2020/12/21 06:25:22;;;;;;;67.07;61.00;;;;;;;12.90;43.44;101378.84;4471760;31;32374;-85
2020/12/21 06:27:50;;;;;;;67.95;61.92;;;;;;;12.97;43.24;101386.56;4472044;31;33030;-85
2020/12/21 06:30:29;;;;;;;69.90;63.42;;;;;;;11.61;47.50;101389.87;4459114;31;33096;-88
2020/12/21 06:33:01;;;;;;;66.85;60.45;;;;;;;10.97;49.14;101385.13;4459158;31;32884;-88
2020/12/21 06:35:29;;;;;;;71.03;63.95;;;;;;;11.25;48.33;101382.34;4473042;31;33886;-88
2020/12/21 06:38:02;;;;;;;67.07;60.83;;;;;;;11.55;47.86;101384.72;4471587;31;33269;-87
2020/12/21 06:40:31;;;;;;;68.53;62.33;;;;;;;12.23;45.64;101387.56;4459000;31;34979;-87
2020/12/21 06:43:17;;;;;;;68.80;62.55;;;;;;;11.89;46.71;101397.47;4472303;31;33739;-86
2020/12/21 06:45:44;;;;;;;70.35;63.95;;;;;;;12.80;44.38;101394.69;4473888;31;32579;-87
2020/12/21 06:48:21;;;;;;;68.57;62.45;;;;;;;12.62;44.53;101395.78;4473137;31;32914;-87
2020/12/21 06:50:49;;;;;;;66.85;60.65;;;;;;;12.70;44.19;101407.00;4472000;31;34054;-86
2020/12/21 06:53:19;;;;;;;69.32;63.17;;;;;;;12.50;44.67;101403.78;4471711;31;33177;-87
2020/12/21 06:55:46;;;;;;;67.10;60.75;;;;;;;12.64;44.67;101404.47;4471329;31;33331;-87
2020/12/21 06:58:13;;;;;;;67.85;61.65;;;;;;;12.07;45.82;101406.87;4471850;31;35547;-87
2020/12/21 07:00:43;;;;;;;68.97;62.78;;;;;;;11.60;46.96;101411.66;4471837;31;33907;-87
2020/12/21 07:03:10;;;;;;;69.12;62.40;;;;;;;12.28;45.74;101411.84;4485204;31;33923;-87
2020/12/21 07:05:38;;;;;;;66.82;60.42;;;;;;;12.56;44.86;101411.53;4459322;31;32800;-87
2020/12/21 07:08:08;;;;;;;69.70;63.05;;;;;;;12.15;45.72;101423.34;4489993;31;34009;-88
2020/12/21 07:10:40;;;;;;;70.32;63.33;;;;;;;12.08;46.01;101421.69;4460459;31;33255;-87
2020/12/21 07:13:11;;;;;;;67.43;61.37;;;;;;;12.69;44.48;101417.47;4484072;31;34315;-88
2020/12/21 07:15:39;;;;;;;70.78;64.53;;;;;;;12.97;43.70;101417.97;4458038;31;33721;-87
2020/12/21 07:18:10;;;;;;;66.47;60.15;;;;;;;13.20;42.81;101422.88;4470252;31;32875;-87
2020/12/21 07:20:41;;;;;;;67.18;61.30;;;;;;;12.85;43.78;101428.59;4458133;31;33900;-87
2020/12/21 07:23:09;;;;;;;68.83;62.70;;;;;;;13.55;41.90;101428.47;4471436;31;33633;-88
2020/12/21 07:25:36;;;;;;;64.82;59.10;;;;;;;13.69;41.64;101428.25;4474167;31;32395;-86
2020/12/21 07:28:03;;;;;;;66.37;60.65;;;;;;;13.39;42.27;101426.97;4486678;31;33603;-87
2020/12/21 07:30:31;;;;;;;66.62;60.78;;;;;;;13.63;41.48;101426.59;4461040;31;33348;-87
2020/12/21 07:33:04;;;;;;;67.30;61.00;;;;;;;13.28;42.51;101427.13;4473550;31;33173;-87
2020/12/21 07:35:33;;;;;;;68.10;61.75;;;;;;;12.68;44.29;101431.44;4448848;31;305020;-88
2020/12/21 07:38:13;;;;;;;66.55;60.33;;;;;;;13.52;42.08;101424.16;4474006;31;34270;-89
2020/12/21 07:40:44;;;;;;;66.90;60.65;;;;;;;13.50;42.16;101423.31;4471603;31;34025;-87
2020/12/21 07:43:21;;;;;;;66.45;60.47;;;;;;;13.69;41.46;101420.37;4470515;31;33738;-88
2020/12/21 07:45:51;;;;;;;66.78;60.60;;;;;;;13.11;42.90;101425.62;4459000;31;32397;-88
2020/12/21 07:48:19;;;;;;;64.57;58.85;;;;;;;13.10;42.77;101429.13;4470941;31;33477;-88
2020/12/21 07:50:47;;;;;;;65.03;59.50;;;;;;;13.88;41.22;101428.81;4484211;31;32803;-88
2020/12/21 07:53:14;;;;;;;67.30;60.70;;;;;;;13.74;41.28;101438.66;4458468;31;32539;-88
2020/12/21 07:55:54;;;;;;;62.60;57.08;;;;;;;13.75;41.14;101429.87;4458628;31;32671;-89
2020/12/21 07:58:23;;;;;;;66.10;60.65;;;;;;;14.18;40.07;101443.06;4484434;31;32929;-89
2020/12/21 08:00:55;;;;;;;65.68;58.90;;;;;;;14.25;39.97;101433.34;4458587;31;33310;-89
2020/12/21 08:03:25;;;;;;;67.45;61.35;;;;;;;13.96;40.58;101436.50;4458572;31;32641;-89
2020/12/21 08:06:09;;;;;;;67.15;60.90;;;;;;;14.04;40.64;101434.63;4484470;31;33312;-88
2020/12/21 08:08:38;;;;;;;64.75;58.83;;;;;;;14.24;39.67;101436.00;4485806;31;33790;-89
2020/12/21 08:11:17;;;;;;;64.95;59.03;;;;;;;14.52;39.30;101436.34;4484899;31;33554;-89
2020/12/21 08:13:46;;;;;;;65.87;59.70;;;;;;;13.66;41.16;101444.00;4470490;31;32657;-89
2020/12/21 08:16:14;;;;;;;65.20;59.20;;;;;;;13.01;42.68;101444.97;4458446;31;33367;-89
2020/12/21 08:18:45;;;;;;;63.60;57.95;;;;;;;13.98;40.50;101438.22;4471285;31;32944;-89
2020/12/21 08:21:14;;;;;;;63.70;58.20;;;;;;;12.88;42.18;101438.16;4471066;31;34043;-88
2020/12/21 08:23:54;;;;;;;62.83;57.55;;;;;;;13.10;41.79;101436.13;4458375;31;32695;-89
2020/12/21 08:26:22;;;;;;;62.67;57.38;;;;;;;13.32;41.24;101440.16;4484324;31;33392;-88
2020/12/21 08:28:50;;;;;;;61.90;56.95;;;;;;;13.20;41.53;101443.81;4483912;31;33821;-89
2020/12/21 08:31:20;;;;;;;66.62;61.35;;;;;;;13.50;40.68;101438.16;4484223;31;33787;-89
2020/12/21 08:34:04;;;;;;;62.22;57.15;;;;;;;13.69;39.98;101436.97;4459068;31;32633;-87
2020/12/21 08:36:39;;;;;;;61.47;56.53;;;;;;;13.68;39.95;101445.72;4471005;31;33009;-87
2020/12/21 08:39:15;;;;;;;60.25;55.53;;;;;;;13.22;40.38;101430.69;4445501;31;34065;-90
2020/12/21 08:41:54;;;;;;;59.72;54.95;;;;;;;12.31;41.98;101442.31;4460439;31;32749;-85
2020/12/21 08:44:23;;;;;;;58.08;53.58;;;;;;;12.50;41.07;101443.00;4446252;31;33604;-88
2020/12/21 08:46:53;;;;;;;60.53;55.30;;;;;;;13.91;38.36;101435.75;4485839;31;34179;-89
2020/12/21 08:49:22;;;;;;;57.88;53.53;;;;;;;13.20;39.71;101437.69;4472833;31;33904;-88
2020/12/21 08:51:50;;;;;;;59.10;54.25;;;;;;;13.06;40.22;101440.53;4485928;31;33782;-88
2020/12/21 08:54:18;;;;;;;59.08;54.50;;;;;;;12.75;40.57;101437.44;4471932;31;33727;-88
2020/12/21 08:56:49;;;;;;;59.30;54.80;;;;;;;12.69;40.23;101444.47;4457632;31;33265;-89
2020/12/21 08:59:17;;;;;;;58.33;53.58;;;;;;;12.32;41.26;101450.13;4469883;31;34252;-88
2020/12/21 09:01:45;;;;;;;60.12;55.20;;;;;;;12.63;40.59;101439.34;4457486;31;33238;-88
2020/12/21 09:04:12;;;;;;;63.63;58.13;;;;;;;13.10;39.89;101436.97;4456919;31;32881;-87
2020/12/21 09:06:40;;;;;;;60.33;55.33;;;;;;;13.05;40.16;101433.56;4460093;31;32990;-88
2020/12/21 09:09:09;;;;;;;61.95;56.75;;;;;;;12.56;40.99;101440.28;4471015;31;33157;-88
2020/12/21 09:11:54;;;;;;;61.90;56.65;;;;;;;13.11;39.83;101429.97;4473343;31;34474;-88
2020/12/21 09:14:24;;;;;;;59.67;54.78;;;;;;;12.73;40.72;101434.00;4473888;31;33916;-87
2020/12/21 09:16:52;;;;;;;60.00;55.30;;;;;;;13.20;39.60;101435.09;4460522;31;32354;-88
2020/12/21 09:19:19;;;;;;;59.40;54.60;;;;;;;13.03;40.11;101433.59;4470790;31;33936;-88
2020/12/21 09:21:47;;;;;;;60.85;55.25;;;;;;;12.19;41.94;101423.31;4457332;31;33342;-88
2020/12/21 09:24:15;;;;;;;59.58;54.70;;;;;;;12.22;42.16;101419.78;4471010;31;33087;-90
2020/12/21 09:26:43;;;;;;;59.42;55.03;;;;;;;11.73;43.02;101423.72;4472565;31;33314;-88
2020/12/21 09:29:11;;;;;;;57.95;53.55;;;;;;;11.94;42.17;101417.44;4485610;31;34583;-91
2020/12/21 09:31:38;;;;;;;62.53;56.80;;;;;;;12.19;41.99;101423.31;4472248;31;33271;-88
2020/12/21 09:34:06;;;;;;;60.50;55.65;;;;;;;12.11;42.12;101426.87;4471941;31;33320;-88
2020/12/21 09:36:34;;;;;;;61.20;55.78;;;;;;;12.24;41.98;101427.59;4472476;31;33388;-88
2020/12/21 09:39:11;;;;;;;60.00;54.20;;;;;;;12.90;40.27;101416.34;4474348;31;33403;-88
2020/12/21 09:41:38;;;;;;;58.72;54.03;;;;;;;12.95;40.12;101417.13;4459482;31;33049;-88
2020/12/21 09:44:06;;;;;;;58.30;53.65;;;;;;;12.88;40.10;101412.84;4472295;31;32965;-88
2020/12/21 09:46:34;;;;;;;58.87;54.28;;;;;;;12.58;40.67;101416.75;4472504;31;33298;-88
2020/12/21 09:49:05;;;;;;;59.08;54.38;;;;;;;12.97;40.11;101419.72;4474145;31;34349;-86
2020/12/21 09:51:32;;;;;;;59.83;54.78;;;;;;;13.36;39.38;101407.84;4486089;31;33620;-85
2020/12/21 09:54:00;;;;;;;59.10;54.17;;;;;;;12.55;40.80;101406.31;4500215;31;33649;-85
2020/12/21 09:56:27;;;;;;;60.42;55.40;;;;;;;12.26;41.42;101408.41;4472265;31;33389;-86
2020/12/21 09:58:55;;;;;;;58.95;54.08;;;;;;;11.94;42.40;101406.97;4459706;31;32762;-85
2020/12/21 10:01:28;;;;;;;61.42;56.05;;;;;;;12.47;41.42;101398.56;4459892;31;32876;-86
2020/12/21 10:04:00;;;;;;;59.60;54.90;;;;;;;12.33;41.78;101397.00;4447692;31;33654;-85
2020/12/21 10:06:27;;;;;;;61.05;56.33;;;;;;;12.26;42.01;101387.50;4459262;31;32603;-85
2020/12/21 10:08:55;;;;;;;60.35;55.25;;;;;;;12.15;41.82;101389.37;4461793;31;32981;-85
2020/12/21 10:11:23;;;;;;;59.33;54.53;;;;;;;12.39;41.55;101387.34;4475094;31;34079;-85
2020/12/21 10:13:50;;;;;;;60.33;55.22;;;;;;;11.69;43.03;101391.53;4485079;31;34460;-86
2020/12/21 10:16:18;;;;;;;63.55;58.25;;;;;;;13.03;39.92;101388.25;4472657;31;33227;-87
2020/12/21 10:18:46;;;;;;;61.55;55.70;;;;;;;12.40;41.35;101394.31;4486191;31;33437;-86
2020/12/21 10:21:13;;;;;;;61.65;56.00;;;;;;;12.11;41.88;101375.50;4472460;31;33116;-86
2020/12/21 10:23:40;;;;;;;61.13;54.88;;;;;;;12.86;40.46;101375.41;4472349;31;33011;-86
2020/12/21 10:26:08;;;;;;;59.40;54.28;;;;;;;13.29;39.65;101371.28;4473809;31;33343;-86
2020/12/21 10:28:35;;;;;;;60.55;55.58;;;;;;;12.45;41.44;101376.84;4461793;31;32927;-86
2020/12/21 10:31:03;;;;;;;60.28;55.03;;;;;;;12.63;41.11;101370.47;4475473;31;34845;-86
2020/12/21 10:33:31;;;;;;;61.65;56.05;;;;;;;11.93;42.49;101366.06;4472572;31;33411;-86
2020/12/21 10:36:00;;;;;;;59.40;54.85;;;;;;;12.61;41.13;101362.66;4461826;31;33449;-90
2020/12/21 10:38:27;;;;;;;62.35;57.42;;;;;;;12.88;40.26;101351.84;4473830;31;33516;-88
2020/12/21 10:40:55;;;;;;;60.25;55.45;;;;;;;12.13;41.83;101355.41;4486232;31;33769;-88
2020/12/21 10:43:22;;;;;;;59.60;54.28;;;;;;;12.65;40.78;101350.41;4474316;31;33787;-88
2020/12/21 10:45:49;;;;;;;60.40;55.58;;;;;;;13.19;39.44;101357.47;4473939;31;32440;-87
2020/12/21 10:48:16;;;;;;;59.15;54.30;;;;;;;13.30;39.35;101355.53;4484742;31;33530;-88
2020/12/21 10:50:45;;;;;;;60.05;55.30;;;;;;;13.33;39.29;101358.09;4459184;31;32865;-89
2020/12/21 10:53:13;;;;;;;59.88;55.25;;;;;;;13.57;38.55;101347.28;4459214;31;33694;-89
2020/12/21 10:55:40;;;;;;;59.75;54.65;;;;;;;12.81;40.05;101351.91;4458877;31;32333;-88
2020/12/21 10:58:08;;;;;;;60.08;55.42;;;;;;;12.40;41.14;101361.19;4458600;31;33815;-88
2020/12/21 11:00:36;;;;;;;58.35;53.80;;;;;;;12.03;41.68;101356.41;4472057;31;33898;-88
2020/12/21 11:03:04;;;;;;;58.05;53.40;;;;;;;12.66;39.98;101360.84;4471787;31;33779;-87
2020/12/21 11:05:32;;;;;;;59.15;54.53;;;;;;;12.53;40.32;101356.69;4472285;31;33413;-88
2020/12/21 11:07:59;;;;;;;57.92;53.47;;;;;;;11.70;42.16;101351.50;4459338;31;32745;-88
2020/12/21 11:10:29;;;;;;;58.25;53.20;;;;;;;11.99;41.73;101358.19;4462841;31;33026;-87
2020/12/21 11:12:57;;;;;;;57.70;52.92;;;;;;;12.69;40.42;101339.03;4475156;31;33113;-86
2020/12/21 11:15:25;;;;;;;57.65;53.28;;;;;;;13.13;39.36;101345.34;4460644;31;33787;-85
2020/12/21 11:17:53;;;;;;;57.25;52.72;;;;;;;12.79;40.07;101334.53;4471649;31;32677;-86